Time;durP1;ratioP1;P1;durP2;ratioP2;P2;SDS_P1;SDS_P2;PMS_P1;PMS_P2;Temp;Humidity;BMP_temperature;BMP_pressure;BME280_temperature;BME280_humidity;BME280_pressure;Samples;Min_cycle;Max_cycle;Signal;HPM_P1;HPM_P2
2023/02/05 00:00:18;;;;;;;;;;;7.00;99.90;;;;;;5022427;28;19967;-78
2023/02/05 00:02:43;;;;;;;;;;;6.90;99.90;;;;;;5017298;28;20467;-79
2023/02/05 00:05:09;;;;;;;;;;;6.90;99.90;;;;;;5022478;28;19924;-78
2023/02/05 00:07:34;;;;;;;;;;;6.60;99.90;;;;;;5019446;28;19924;-79
2023/02/05 00:10:00;;;;;;;;;;;6.50;99.90;;;;;;4997663;28;19919;-78
2023/02/05 00:12:26;;;;;;;;;;;6.60;99.90;;;;;;5018939;28;20384;-78
2023/02/05 00:14:51;;;;;;;;;;;6.80;99.90;;;;;;5019493;28;19910;-78
2023/02/05 00:17:17;;;;;;;;;;;6.60;99.90;;;;;;5018963;28;19909;-78
2023/02/05 00:19:43;;;;;;;;;;;6.40;99.90;;;;;;5013198;28;19909;-77
2023/02/05 00:22:08;;;;;;;;;;;6.50;99.90;;;;;;5013618;28;19920;-77
2023/02/05 00:24:34;;;;;;;;;;;6.50;99.90;;;;;;5017950;28;20717;-77
2023/02/05 00:26:59;;;;;;;;;;;6.50;99.90;;;;;;5009608;28;19917;-77
2023/02/05 00:29:25;;;;;;;;;;;6.40;99.90;;;;;;5012666;28;19909;-78
2023/02/05 00:31:51;;;;;;;;;;;6.20;99.90;;;;;;5011804;28;20384;-78
2023/02/05 00:34:17;;;;;;;;;;;6.10;99.90;;;;;;5016990;28;19909;-77
2023/02/05 00:36:42;;;;;;;;;;;6.20;99.90;;;;;;4998862;28;19920;-78
2023/02/05 00:39:10;;;;;;;;;;;6.20;99.90;;;;;;5019216;28;19913;-77
2023/02/05 00:41:36;;;;;;;;;;;6.40;99.90;;;;;;5007814;28;19915;-77
2023/02/05 00:44:01;;;;;;;;;;;6.30;99.90;;;;;;5012947;28;20383;-77
2023/02/05 00:46:27;;;;;;;;;;;6.60;99.90;;;;;;5015493;28;19923;-77
2023/02/05 00:48:52;;;;;;;;;;;6.40;99.90;;;;;;5018697;28;19951;-77
2023/02/05 00:51:18;;;;;;;;;;;6.30;99.90;;;;;;5021053;28;19913;-77
2023/02/05 00:53:44;;;;;;;;;;;6.40;99.90;;;;;;5018646;28;19917;-77
2023/02/05 00:56:09;;;;;;;;;;;6.30;99.90;;;;;;5021294;28;20621;-77
2023/02/05 00:58:35;;;;;;;;;;;6.40;99.90;;;;;;5013381;28;19992;-77
2023/02/05 01:01:00;;;;;;;;;;;6.30;99.90;;;;;;5018012;28;19933;-77
2023/02/05 01:03:26;;;;;;;;;;;6.50;99.90;;;;;;5015934;28;20304;-77
2023/02/05 01:05:52;;;;;;;;;;;6.50;99.90;;;;;;5020296;28;19939;-77
2023/02/05 01:08:17;;;;;;;;;;;6.50;99.90;;;;;;5020869;28;19943;-77
2023/02/05 01:10:47;;;;;;;;;;;6.30;99.90;;;;;;5018914;28;20087;-77
2023/02/05 01:13:12;;;;;;;;;;;6.30;99.90;;;;;;5010379;28;19942;-77
2023/02/05 01:15:38;;;;;;;;;;;6.30;99.90;;;;;;5015764;28;19964;-79
2023/02/05 01:18:04;;;;;;;;;;;6.20;99.90;;;;;;5001800;28;19913;-78
2023/02/05 01:20:29;;;;;;;;;;;6.10;99.90;;;;;;5022742;28;19956;-78
2023/02/05 01:22:55;;;;;;;;;;;6.10;99.90;;;;;;5014415;28;19925;-78
2023/02/05 01:25:21;;;;;;;;;;;6.20;99.90;;;;;;5020772;28;19920;-78
2023/02/05 01:27:46;;;;;;;;;;;6.20;99.90;;;;;;5017898;28;19924;-78
2023/02/05 01:30:12;;;;;;;;;;;6.30;99.90;;;;;;5018664;28;20007;-78
2023/02/05 01:32:39;;;;;;;;;;;6.20;99.90;;;;;;5017865;28;19917;-78
2023/02/05 01:35:05;;;;;;;;;;;6.20;99.90;;;;;;5013980;28;19914;-78
2023/02/05 01:37:30;;;;;;;;;;;6.20;99.90;;;;;;5018788;28;19933;-78
2023/02/05 01:39:56;;;;;;;;;;;6.20;99.90;;;;;;5015362;28;19920;-78
2023/02/05 01:42:24;;;;;;;;;;;6.20;99.90;;;;;;5011656;28;19909;-78
2023/02/05 01:45:08;;;;;;;;;;;6.00;99.90;;;;;;5011397;28;20514;-77
2023/02/05 01:47:33;;;;;;;;;;;5.90;99.90;;;;;;5018994;28;19917;-78
2023/02/05 01:49:59;;;;;;;;;;;6.00;99.90;;;;;;5021917;28;20370;-78
2023/02/05 01:52:25;;;;;;;;;;;6.00;99.90;;;;;;5020557;28;20791;-78
2023/02/05 01:54:52;;;;;;;;;;;6.00;99.90;;;;;;5020636;28;19975;-78
2023/02/05 01:57:21;;;;;;;;;;;6.00;99.90;;;;;;5019090;28;19949;-78
2023/02/05 01:59:47;;;;;;;;;;;6.00;99.90;;;;;;5020290;28;20036;-77
2023/02/05 02:02:13;;;;;;;;;;;5.90;99.90;;;;;;4999121;28;19920;-77
2023/02/05 02:04:40;;;;;;;;;;;5.80;99.90;;;;;;5018328;28;19908;-76
2023/02/05 02:07:06;;;;;;;;;;;5.80;99.90;;;;;;5015839;28;19927;-77
2023/02/05 02:09:33;;;;;;;;;;;5.80;99.90;;;;;;5016334;28;19913;-77
2023/02/05 02:11:59;;;;;;;;;;;5.80;99.90;;;;;;5004849;28;19909;-77
2023/02/05 02:14:25;;;;;;;;;;;6.00;99.90;;;;;;5015201;28;20556;-76
2023/02/05 02:16:51;;;;;;;;;;;5.90;99.90;;;;;;5012413;28;20257;-78
2023/02/05 02:19:25;;;;;;;;;;;6.00;99.90;;;;;;5022029;28;19913;-78
2023/02/05 02:22:10;;;;;;;;;;;6.00;99.90;;;;;;5017258;28;19913;-77
2023/02/05 02:24:54;;;;;;;;;;;5.90;99.90;;;;;;5010417;28;19917;-78
2023/02/05 02:27:28;;;;;;;;;;;5.70;99.90;;;;;;5010497;28;19917;-78
2023/02/05 02:29:58;;;;;;;;;;;5.70;99.90;;;;;;5010784;28;20019;-77
2023/02/05 02:32:34;;;;;;;;;;;5.90;99.90;;;;;;5013515;28;19949;-78
2023/02/05 02:35:03;;;;;;;;;;;5.90;99.90;;;;;;5012851;28;19909;-78
2023/02/05 02:37:33;;;;;;;;;;;5.90;99.90;;;;;;5009173;28;19916;-79
2023/02/05 02:40:04;;;;;;;;;;;6.00;99.90;;;;;;5017187;28;19913;-79
2023/02/05 02:42:33;;;;;;;;;;;5.90;99.90;;;;;;5015303;28;19913;-78
2023/02/05 02:44:59;;;;;;;;;;;5.80;99.90;;;;;;5008282;28;20694;-78
2023/02/05 02:47:28;;;;;;;;;;;5.90;99.90;;;;;;5018430;28;19913;-79
2023/02/05 02:50:02;;;;;;;;;;;6.00;99.90;;;;;;5019605;28;19917;-79
2023/02/05 02:52:31;;;;;;;;;;;5.70;99.90;;;;;;5019741;28;19972;-79
2023/02/05 02:54:59;;;;;;;;;;;5.90;99.90;;;;;;4999194;28;19921;-78
2023/02/05 02:57:26;;;;;;;;;;;5.90;99.90;;;;;;5017880;28;19959;-78
2023/02/05 02:59:54;;;;;;;;;;;5.80;99.90;;;;;;5011561;28;19925;-78
2023/02/05 03:02:20;;;;;;;;;;;5.60;99.90;;;;;;5017718;28;19913;-78
2023/02/05 03:04:49;;;;;;;;;;;5.70;99.90;;;;;;5017513;28;19951;-78
2023/02/05 03:07:14;;;;;;;;;;;5.70;99.90;;;;;;5006977;28;20757;-78
2023/02/05 03:09:44;;;;;;;;;;;5.60;99.90;;;;;;5017707;28;20122;-77
2023/02/05 03:12:09;;;;;;;;;;;5.50;99.90;;;;;;5017645;28;19921;-78
2023/02/05 03:14:35;;;;;;;;;;;5.40;99.90;;;;;;4994187;28;19910;-78
2023/02/05 03:17:01;;;;;;;;;;;5.30;99.90;;;;;;5009401;28;19913;-77
2023/02/05 03:19:27;;;;;;;;;;;5.50;99.90;;;;;;5015524;28;20040;-78
2023/02/05 03:21:56;;;;;;;;;;;5.50;99.90;;;;;;4994247;28;19920;-78
2023/02/05 03:24:21;;;;;;;;;;;5.50;99.90;;;;;;5018670;28;20035;-77
2023/02/05 03:26:47;;;;;;;;;;;5.50;99.90;;;;;;5021593;28;20718;-76
2023/02/05 03:29:14;;;;;;;;;;;5.60;99.90;;;;;;5022452;28;20432;-77
2023/02/05 03:31:45;;;;;;;;;;;5.70;99.90;;;;;;5019013;28;19935;-77
2023/02/05 03:34:21;;;;;;;;;;;5.40;99.90;;;;;;5023539;28;20027;-77
2023/02/05 03:36:53;;;;;;;;;;;5.60;99.90;;;;;;5021889;28;19949;-77
2023/02/05 03:39:21;;;;;;;;;;;5.70;99.90;;;;;;5021335;28;20639;-77
2023/02/05 03:41:55;;;;;;;;;;;5.60;99.90;;;;;;5019912;28;19916;-77
2023/02/05 03:44:36;;;;;;;;;;;5.60;99.90;;;;;;5019128;28;19924;-77
2023/02/05 03:47:08;;;;;;;;;;;5.60;99.90;;;;;;5010079;28;19928;-77
2023/02/05 03:49:40;;;;;;;;;;;5.60;99.90;;;;;;5023135;28;19917;-77
2023/02/05 03:52:11;;;;;;;;;;;5.60;99.90;;;;;;5023296;28;19924;-77
2023/02/05 03:54:57;;;;;;;;;;;5.60;99.90;;;;;;5022191;28;20029;-79
2023/02/05 03:57:25;;;;;;;;;;;5.50;99.90;;;;;;4989183;28;19913;-81
2023/02/05 03:59:52;;;;;;;;;;;5.50;99.90;;;;;;5019826;28;20051;-78
2023/02/05 04:02:18;;;;;;;;;;;5.50;99.90;;;;;;5015327;28;19944;-78
2023/02/05 04:04:44;;;;;;;;;;;5.60;99.90;;;;;;5013758;28;20356;-78
2023/02/05 04:07:09;;;;;;;;;;;5.80;99.90;;;;;;5019027;28;20016;-78
2023/02/05 04:09:35;;;;;;;;;;;5.70;99.90;;;;;;5019744;28;19927;-78
2023/02/05 04:12:00;;;;;;;;;;;5.60;99.90;;;;;;5017412;28;19913;-77
2023/02/05 04:14:26;;;;;;;;;;;5.50;99.90;;;;;;5015595;28;19948;-77
2023/02/05 04:16:51;;;;;;;;;;;5.30;99.90;;;;;;5008738;28;19916;-78
2023/02/05 04:19:17;;;;;;;;;;;5.30;99.90;;;;;;5015789;28;19909;-76
2023/02/05 04:21:42;;;;;;;;;;;5.10;99.90;;;;;;5020738;28;20005;-77
2023/02/05 04:24:08;;;;;;;;;;;5.00;99.90;;;;;;5022149;28;20368;-78
2023/02/05 04:26:34;;;;;;;;;;;5.00;99.90;;;;;;5011932;28;19913;-78
2023/02/05 04:28:59;;;;;;;;;;;5.20;99.90;;;;;;5007997;28;19967;-78
2023/02/05 04:31:25;;;;;;;;;;;5.30;99.90;;;;;;5015558;28;19916;-77
2023/02/05 04:33:50;;;;;;;;;;;5.40;99.90;;;;;;5007289;28;19913;-77
2023/02/05 04:36:16;;;;;;;;;;;5.30;99.90;;;;;;5016260;28;19956;-77
2023/02/05 04:38:41;;;;;;;;;;;5.30;99.90;;;;;;5013264;28;20674;-79
2023/02/05 04:41:07;;;;;;;;;;;5.00;99.90;;;;;;4997925;28;19913;-78
2023/02/05 04:43:33;;;;;;;;;;;4.80;99.90;;;;;;5019390;28;19924;-79
2023/02/05 04:46:03;;;;;;;;;;;4.70;99.90;;;;;;5018196;28;19960;-78
2023/02/05 04:48:29;;;;;;;;;;;4.80;99.90;;;;;;5019179;28;19912;-78
2023/02/05 04:50:54;;;;;;;;;;;4.70;99.90;;;;;;5021404;28;19936;-77
2023/02/05 04:53:20;;;;;;;;;;;4.70;99.90;;;;;;5019770;28;19991;-77
2023/02/05 04:55:45;;;;;;;;;;;4.50;99.90;;;;;;5016981;28;20004;-78
2023/02/05 04:58:11;;;;;;;;;;;4.40;99.90;;;;;;5022413;28;19917;-78
2023/02/05 05:00:36;;;;;;;;;;;4.70;99.90;;;;;;5019569;28;19921;-79
2023/02/05 05:03:02;;;;;;;;;;;4.90;99.90;;;;;;5017796;28;19913;-77
2023/02/05 05:05:28;;;;;;;;;;;4.90;99.90;;;;;;5019593;28;20019;-78
2023/02/05 05:07:54;;;;;;;;;;;4.70;99.90;;;;;;5017157;28;20333;-78
2023/02/05 05:10:19;;;;;;;;;;;4.70;99.90;;;;;;5017757;28;19912;-78
2023/02/05 05:12:45;;;;;;;;;;;4.80;99.90;;;;;;5015403;28;19913;-78
2023/02/05 05:15:10;;;;;;;;;;;4.60;99.90;;;;;;5014911;28;19978;-78
2023/02/05 05:17:36;;;;;;;;;;;4.50;99.90;;;;;;5011914;28;19909;-78
2023/02/05 05:20:02;;;;;;;;;;;4.40;99.90;;;;;;5015984;28;20424;-78
2023/02/05 05:22:28;;;;;;;;;;;4.40;99.90;;;;;;5015789;28;19917;-76
2023/02/05 05:24:53;;;;;;;;;;;4.40;99.90;;;;;;5019760;28;19919;-77
2023/02/05 05:27:21;;;;;;;;;;;4.40;99.90;;;;;;5021310;28;19924;-77
2023/02/05 05:29:48;;;;;;;;;;;4.50;99.90;;;;;;5015710;28;20669;-77
2023/02/05 05:32:13;;;;;;;;;;;4.40;99.90;;;;;;5019815;28;20019;-78
2023/02/05 05:34:39;;;;;;;;;;;4.20;99.90;;;;;;5022703;28;20000;-76
2023/02/05 05:37:04;;;;;;;;;;;4.10;99.90;;;;;;5020574;28;20035;-78
2023/02/05 05:44:59;;;;;;;;;;;4.00;99.90;;;;;;5016641;28;19919;-78
2023/02/05 05:47:24;;;;;;;;;;;3.90;99.90;;;;;;5009020;28;20259;-78
2023/02/05 05:49:50;;;;;;;;;;;3.90;99.90;;;;;;5017046;28;19912;-77
2023/02/05 05:52:15;;;;;;;;;;;3.90;99.90;;;;;;5020072;28;19920;-78
2023/02/05 05:54:41;;;;;;;;;;;4.10;99.90;;;;;;5013643;28;19922;-77
2023/02/05 05:57:07;;;;;;;;;;;4.10;99.90;;;;;;5021023;28;19913;-78
2023/02/05 05:59:33;;;;;;;;;;;4.00;99.90;;;;;;5021116;28;20063;-78
2023/02/05 06:01:59;;;;;;;;;;;4.10;99.90;;;;;;5020094;28;19913;-78
2023/02/05 06:04:25;;;;;;;;;;;3.90;99.90;;;;;;5003539;28;19971;-77
2023/02/05 06:06:51;;;;;;;;;;;3.90;99.90;;;;;;5017824;28;19925;-78
2023/02/05 06:09:16;;;;;;;;;;;3.90;99.90;;;;;;5018154;28;19927;-78
2023/02/05 06:11:42;;;;;;;;;;;3.90;99.90;;;;;;5007198;28;19916;-77
2023/02/05 06:14:07;;;;;;;;;;;3.90;99.90;;;;;;5012385;28;19955;-77
2023/02/05 06:16:33;;;;;;;;;;;3.70;99.90;;;;;;5006379;28;20027;-78
2023/02/05 06:18:58;;;;;;;;;;;3.70;99.90;;;;;;5013726;28;20070;-78
2023/02/05 06:21:24;;;;;;;;;;;3.70;99.90;;;;;;5013987;28;19952;-77
2023/02/05 06:23:50;;;;;;;;;;;3.70;99.90;;;;;;5006999;28;19960;-77
2023/02/05 06:26:15;;;;;;;;;;;3.70;99.90;;;;;;5010367;28;19913;-78
2023/02/05 06:28:41;;;;;;;;;;;3.70;99.90;;;;;;5006926;28;19917;-78
2023/02/05 06:31:06;;;;;;;;;;;3.70;99.90;;;;;;5014415;28;19909;-79
2023/02/05 06:33:32;;;;;;;;;;;3.70;99.90;;;;;;5006262;28;19909;-78
2023/02/05 06:35:57;;;;;;;;;;;3.70;99.90;;;;;;5015800;28;19909;-79
2023/02/05 06:38:23;;;;;;;;;;;3.60;99.90;;;;;;5014315;28;19913;-79
2023/02/05 06:40:48;;;;;;;;;;;3.60;99.90;;;;;;5014015;28;19916;-78
2023/02/05 06:43:14;;;;;;;;;;;3.50;99.90;;;;;;4997860;28;19927;-79
2023/02/05 06:45:40;;;;;;;;;;;3.60;99.90;;;;;;5014177;28;19918;-79
2023/02/05 06:48:05;;;;;;;;;;;3.50;99.90;;;;;;5014116;28;19913;-79
2023/02/05 06:50:31;;;;;;;;;;;3.60;99.90;;;;;;5019990;28;19928;-79
2023/02/05 06:52:57;;;;;;;;;;;3.70;99.90;;;;;;5016704;28;19913;-79
2023/02/05 06:55:22;;;;;;;;;;;3.80;99.90;;;;;;5018797;28;19920;-79
2023/02/05 06:57:48;;;;;;;;;;;3.80;99.90;;;;;;4995588;28;20363;-79
2023/02/05 07:00:14;;;;;;;;;;;3.90;99.90;;;;;;5016133;28;19931;-79
2023/02/05 07:02:40;;;;;;;;;;;3.90;99.90;;;;;;5019564;28;19920;-79
2023/02/05 07:05:06;;;;;;;;;;;3.90;99.90;;;;;;5016314;28;19917;-79
2023/02/05 07:07:32;;;;;;;;;;;3.90;99.90;;;;;;5020172;28;20415;-79
2023/02/05 07:09:58;;;;;;;;;;;4.00;99.90;;;;;;4992819;28;19913;-79
2023/02/05 07:12:23;;;;;;;;;;;4.10;99.90;;;;;;4998020;28;19970;-79
2023/02/05 07:14:49;;;;;;;;;;;4.20;99.90;;;;;;5018186;28;19913;-79
2023/02/05 07:17:14;;;;;;;;;;;4.30;99.90;;;;;;5008961;28;19996;-79
2023/02/05 07:19:40;;;;;;;;;;;4.40;99.90;;;;;;5004936;28;19952;-78
2023/02/05 07:22:06;;;;;;;;;;;4.50;99.90;;;;;;5014944;28;20012;-78
2023/02/05 07:24:31;;;;;;;;;;;4.70;99.90;;;;;;5018804;28;20549;-77
2023/02/05 07:26:57;;;;;;;;;;;4.80;99.90;;;;;;4998498;28;19924;-78
2023/02/05 07:29:22;;;;;;;;;;;4.80;99.90;;;;;;5017936;28;19987;-79
2023/02/05 07:31:48;;;;;;;;;;;4.70;99.90;;;;;;5017533;28;19919;-79
2023/02/05 07:34:14;;;;;;;;;;;5.50;99.90;;;;;;5019232;28;19983;-78
2023/02/05 07:36:39;;;;;;;;;;;6.50;99.90;;;;;;5012538;28;20428;-78
2023/02/05 07:39:05;;;;;;;;;;;7.10;99.90;;;;;;5011507;28;19920;-79
2023/02/05 07:41:31;;;;;;;;;;;7.60;99.90;;;;;;5015513;28;20011;-79
2023/02/05 07:43:56;;;;;;;;;;;8.30;99.90;;;;;;5015020;28;20369;-77
2023/02/05 07:46:22;;;;;;;;;;;8.70;99.90;;;;;;5014240;28;20273;-78
2023/02/05 07:48:47;;;;;;;;;;;8.50;99.90;;;;;;5015783;28;20023;-78
2023/02/05 07:51:14;;;;;;;;;;;8.50;99.90;;;;;;5012012;28;19944;-79
2023/02/05 07:53:40;;;;;;;;;;;8.80;99.90;;;;;;5019258;28;19913;-79
2023/02/05 07:56:06;;;;;;;;;;;9.30;99.90;;;;;;5021280;28;19910;-81
2023/02/05 07:58:31;;;;;;;;;;;8.60;99.90;;;;;;5016153;28;19968;-79
2023/02/05 08:01:00;;;;;;;;;;;7.90;99.90;;;;;;5001860;28;19967;-81
2023/02/05 08:03:26;;;;;;;;;;;7.40;99.90;;;;;;5022338;28;20411;-81
2023/02/05 08:05:52;;;;;;;;;;;6.90;99.90;;;;;;5024078;28;19917;-80
2023/02/05 08:08:17;;;;;;;;;;;7.50;99.90;;;;;;5020984;28;19927;-82
2023/02/05 08:10:43;;;;;;;;;;;8.30;99.90;;;;;;5024433;28;19948;-82
2023/02/05 08:13:09;;;;;;;;;;;9.30;99.90;;;;;;5024163;28;19913;-82
2023/02/05 08:15:37;;;;;;;;;;;9.70;99.90;;;;;;5021658;28;19915;-82
2023/02/05 08:18:02;;;;;;;;;;;10.20;98.10;;;;;;5023871;28;19916;-81
2023/02/05 08:20:28;;;;;;;;;;;10.50;96.60;;;;;;5022312;28;19920;-81
2023/02/05 08:22:53;;;;;;;;;;;10.00;97.80;;;;;;5022448;28;20032;-80
2023/02/05 08:25:19;;;;;;;;;;;8.90;98.60;;;;;;5023614;28;19916;-81
2023/02/05 08:27:45;;;;;;;;;;;8.50;99.90;;;;;;5022928;28;20090;-81
2023/02/05 08:30:12;;;;;;;;;;;8.20;99.90;;;;;;5023117;28;19936;-80
2023/02/05 08:32:38;;;;;;;;;;;7.90;99.90;;;;;;5022953;28;19909;-80
2023/02/05 08:35:03;;;;;;;;;;;7.90;99.90;;;;;;5014489;28;19924;-81
2023/02/05 08:37:29;;;;;;;;;;;8.00;99.90;;;;;;5018484;28;20401;-81
2023/02/05 08:39:55;;;;;;;;;;;8.00;99.90;;;;;;5021280;28;19913;-80
2023/02/05 08:42:21;;;;;;;;;;;8.10;99.90;;;;;;5011939;28;20479;-80
2023/02/05 08:44:47;;;;;;;;;;;7.90;99.90;;;;;;5021787;28;19909;-80
2023/02/05 08:47:13;;;;;;;;;;;7.90;99.70;;;;;;5016195;28;19917;-80
2023/02/05 08:49:39;;;;;;;;;;;8.00;99.90;;;;;;5022514;28;19939;-79
2023/02/05 08:52:05;;;;;;;;;;;7.90;99.90;;;;;;5014655;28;19979;-80
2023/02/05 08:54:30;;;;;;;;;;;7.90;99.60;;;;;;5020961;28;19913;-80
2023/02/05 08:56:56;;;;;;;;;;;7.90;99.90;;;;;;5022080;28;19920;-80
2023/02/05 08:59:21;;;;;;;;;;;7.80;99.90;;;;;;5003696;28;20544;-78
2023/02/05 09:01:47;;;;;;;;;;;7.80;99.90;;;;;;5015917;28;19921;-80
2023/02/05 09:04:14;;;;;;;;;;;7.80;99.90;;;;;;5018940;28;20438;-81
2023/02/05 09:06:40;;;;;;;;;;;7.90;99.90;;;;;;5021822;28;20390;-79
2023/02/05 09:09:06;;;;;;;;;;;8.30;99.90;;;;;;5020770;28;19917;-79
2023/02/05 09:11:31;;;;;;;;;;;8.40;99.70;;;;;;5018367;28;19953;-79
2023/02/05 09:13:57;;;;;;;;;;;8.50;98.70;;;;;;5007075;28;19928;-79
2023/02/05 09:16:22;;;;;;;;;;;8.80;99.20;;;;;;5007361;28;19940;-78
2023/02/05 09:18:48;;;;;;;;;;;8.80;98.90;;;;;;5012296;28;19924;-78
2023/02/05 09:21:14;;;;;;;;;;;9.00;97.80;;;;;;5010912;28;20210;-78
2023/02/05 09:23:40;;;;;;;;;;;9.20;98.40;;;;;;5014455;28;19917;-78
2023/02/05 09:26:07;;;;;;;;;;;9.20;98.40;;;;;;5013314;28;19917;-78
2023/02/05 09:28:33;;;;;;;;;;;10.20;97.10;;;;;;4991519;28;19917;-78
2023/02/05 09:31:03;;;;;;;;;;;10.70;96.10;;;;;;5006370;28;19909;-79
2023/02/05 09:33:28;;;;;;;;;;;11.30;96.20;;;;;;5009114;28;19921;-78
2023/02/05 09:35:54;;;;;;;;;;;10.80;95.60;;;;;;5020765;28;19909;-77
2023/02/05 09:38:19;;;;;;;;;;;10.70;95.40;;;;;;5020852;28;19967;-79
2023/02/05 09:40:48;;;;;;;;;;;10.30;97.10;;;;;;5014324;28;19960;-79
2023/02/05 09:43:13;;;;;;;;;;;10.00;98.80;;;;;;5006069;28;19913;-78
2023/02/05 09:46:00;;;;;;;;;;;9.80;99.90;;;;;;4992497;28;19927;-78
2023/02/05 09:48:26;;;;;;;;;;;9.60;99.90;;;;;;5003018;28;19924;-78
2023/02/05 09:50:51;;;;;;;;;;;9.60;99.90;;;;;;5006024;28;19917;-79
2023/02/05 09:53:18;;;;;;;;;;;9.50;99.90;;;;;;5005815;28;19917;-79
2023/02/05 09:55:45;;;;;;;;;;;9.40;99.90;;;;;;5003443;28;19963;-78
2023/02/05 09:58:15;;;;;;;;;;;9.40;99.90;;;;;;5009812;28;19909;-80
2023/02/05 10:01:01;;;;;;;;;;;9.30;99.90;;;;;;5015104;28;19921;-81
2023/02/05 10:03:30;;;;;;;;;;;9.20;99.90;;;;;;5005861;28;19956;-78
2023/02/05 10:05:59;;;;;;;;;;;9.20;99.90;;;;;;5004188;28;19917;-80
2023/02/05 10:08:24;;;;;;;;;;;9.10;99.90;;;;;;5005007;28;19967;-85
2023/02/05 10:10:52;;;;;;;;;;;9.00;99.90;;;;;;5005133;28;19913;-84
2023/02/05 10:13:22;;;;;;;;;;;8.90;99.90;;;;;;5010061;28;20035;-84
2023/02/05 10:15:54;;;;;;;;;;;8.80;99.90;;;;;;5011885;28;19919;-83
2023/02/05 10:18:38;;;;;;;;;;;8.70;99.90;;;;;;5005830;28;19920;-83
2023/02/05 10:21:26;;;;;;;;;;;8.60;99.90;;;;;;5004400;28;20008;-82
2023/02/05 10:24:00;;;;;;;;;;;8.70;99.60;;;;;;5005810;28;19921;-84
2023/02/05 10:26:30;;;;;;;;;;;8.80;99.00;;;;;;5004485;28;19936;-88
2023/02/05 10:29:06;;;;;;;;;;;8.90;98.90;;;;;;5003313;28;19917;-85
2023/02/05 10:31:32;;;;;;;;;;;9.20;97.70;;;;;;5016738;28;19930;-87
2023/02/05 10:34:03;;;;;;;;;;;9.30;97.00;;;;;;5003917;28;20519;-86
2023/02/05 10:36:29;;;;;;;;;;;9.70;96.40;;;;;;5010748;28;19913;-84
2023/02/05 10:38:55;;;;;;;;;;;10.00;95.00;;;;;;5001364;28;19913;-85
2023/02/05 10:41:21;;;;;;;;;;;9.90;93.90;;;;;;5016035;28;19917;-82
2023/02/05 10:43:46;;;;;;;;;;;10.10;93.70;;;;;;5007568;28;19912;-81
2023/02/05 10:46:12;;;;;;;;;;;10.20;92.80;;;;;;5010329;28;19985;-82
2023/02/05 10:48:41;;;;;;;;;;;10.20;92.70;;;;;;5003092;28;20313;-81
2023/02/05 10:51:10;;;;;;;;;;;9.90;92.40;;;;;;4999620;28;19968;-82
2023/02/05 10:53:35;;;;;;;;;;;9.80;92.60;;;;;;5006978;28;20514;-82
2023/02/05 10:56:02;;;;;;;;;;;9.80;92.60;;;;;;5003567;28;19917;-83
2023/02/05 10:58:42;;;;;;;;;;;9.60;93.20;;;;;;5006829;28;20491;-84
2023/02/05 11:01:23;;;;;;;;;;;9.60;93.10;;;;;;5008434;28;19927;-81
2023/02/05 11:03:54;;;;;;;;;;;9.50;93.10;;;;;;5006396;28;19909;-81
2023/02/05 11:06:20;;;;;;;;;;;9.60;93.30;;;;;;5012688;28;19943;-82
2023/02/05 11:08:47;;;;;;;;;;;9.60;93.50;;;;;;5013378;28;19916;-81
2023/02/05 11:11:24;;;;;;;;;;;9.80;93.90;;;;;;5017423;28;19920;-80
2023/02/05 11:13:52;;;;;;;;;;;9.70;93.70;;;;;;5015172;28;20024;-85
2023/02/05 11:16:17;;;;;;;;;;;9.80;94.10;;;;;;5016845;28;19941;-87
2023/02/05 11:18:44;;;;;;;;;;;9.80;94.30;;;;;;5014638;28;20524;-81
2023/02/05 11:21:10;;;;;;;;;;;9.70;93.90;;;;;;5019172;28;19932;-80
2023/02/05 11:23:41;;;;;;;;;;;9.60;94.50;;;;;;5012891;28;20205;-80
2023/02/05 11:26:18;;;;;;;;;;;9.50;95.00;;;;;;5012982;28;20487;-79
2023/02/05 11:28:45;;;;;;;;;;;9.60;94.60;;;;;;5016020;28;19917;-79
2023/02/05 11:31:18;;;;;;;;;;;9.60;95.10;;;;;;5021850;28;19917;-80
2023/02/05 11:33:44;;;;;;;;;;;9.60;95.20;;;;;;5014672;28;19913;-80
2023/02/05 11:36:17;;;;;;;;;;;9.60;94.90;;;;;;4992797;28;19962;-80
2023/02/05 11:38:44;;;;;;;;;;;9.60;95.00;;;;;;5006923;28;20336;-80
2023/02/05 11:41:11;;;;;;;;;;;9.40;94.90;;;;;;5012221;28;20011;-80
2023/02/05 11:43:39;;;;;;;;;;;9.40;95.30;;;;;;5009764;28;20429;-79
2023/02/05 11:46:09;;;;;;;;;;;9.30;95.10;;;;;;5020529;28;20031;-80
2023/02/05 11:49:04;;;;;;;;;;;9.40;95.90;;;;;;5014555;28;19913;-80
2023/02/05 11:51:41;;;;;;;;;;;9.50;95.10;;;;;;5008244;28;19995;-80
2023/02/05 11:54:20;;;;;;;;;;;9.70;94.80;;;;;;4996004;28;20011;-80
2023/02/05 11:57:06;;;;;;;;;;;9.90;94.50;;;;;;5019378;28;19909;-80
2023/02/05 11:59:32;;;;;;;;;;;9.90;94.30;;;;;;5010375;28;20435;-79
2023/02/05 12:02:29;;;;;;;;;;;10.00;94.40;;;;;;5010227;28;20418;-79
2023/02/05 12:04:58;;;;;;;;;;;10.20;93.60;;;;;;5013939;28;19913;-80
2023/02/05 12:07:25;;;;;;;;;;;10.20;93.10;;;;;;5011419;28;19925;-80
2023/02/05 12:09:57;;;;;;;;;;;9.90;92.10;;;;;;5017611;28;19913;-80
2023/02/05 12:12:36;;;;;;;;;;;9.80;92.30;;;;;;5021954;28;20368;-80
2023/02/05 12:15:23;;;;;;;;;;;9.70;92.40;;;;;;5016227;28;20293;-80
2023/02/05 12:17:49;;;;;;;;;;;9.80;92.50;;;;;;5013165;28;20628;-80
2023/02/05 12:20:20;;;;;;;;;;;9.70;92.40;;;;;;5021974;28;19936;-80
2023/02/05 12:22:59;;;;;;;;;;;9.60;92.20;;;;;;5013070;28;19917;-80
2023/02/05 12:25:25;;;;;;;;;;;9.60;93.10;;;;;;5006102;28;19909;-80
2023/02/05 12:27:53;;;;;;;;;;;9.50;92.70;;;;;;5005870;28;19983;-80
2023/02/05 12:30:26;;;;;;;;;;;9.50;92.60;;;;;;5007969;28;19968;-80
2023/02/05 12:33:10;;;;;;;;;;;9.60;92.90;;;;;;5012515;28;19928;-80
2023/02/05 12:35:41;;;;;;;;;;;9.70;92.40;;;;;;5014477;28;19979;-80
2023/02/05 12:38:18;;;;;;;;;;;9.70;92.70;;;;;;5021219;28;19932;-80
2023/02/05 12:41:01;;;;;;;;;;;9.70;92.40;;;;;;5015310;28;19991;-80
2023/02/05 12:43:52;;;;;;;;;;;9.80;92.30;;;;;;5012652;28;19916;-80
2023/02/05 12:46:20;;;;;;;;;;;9.80;92.60;;;;;;5009320;28;19925;-80
2023/02/05 12:48:59;;;;;;;;;;;9.80;92.80;;;;;;5013305;28;20269;-80
2023/02/05 12:51:41;;;;;;;;;;;9.80;93.00;;;;;;5010667;28;19956;-80
2023/02/05 12:54:17;;;;;;;;;;;9.90;92.80;;;;;;5006599;28;19919;-80
2023/02/05 12:56:58;;;;;;;;;;;10.00;92.80;;;;;;5019619;28;20027;-80
2023/02/05 12:59:32;;;;;;;;;;;10.00;93.00;;;;;;5023212;28;20674;-80
2023/02/05 13:02:00;;;;;;;;;;;10.00;92.80;;;;;;5023276;28;19921;-80
2023/02/05 13:04:33;;;;;;;;;;;10.30;92.60;;;;;;5021059;28;19913;-79
2023/02/05 13:07:23;;;;;;;;;;;10.30;92.10;;;;;;5008721;28;19967;-79
2023/02/05 13:09:52;;;;;;;;;;;10.50;92.10;;;;;;5007242;28;19913;-81
2023/02/05 13:12:22;;;;;;;;;;;10.50;91.90;;;;;;5009737;28;20311;-81
2023/02/05 13:14:50;;;;;;;;;;;10.50;92.40;;;;;;5005436;28;20447;-80
2023/02/05 13:17:29;;;;;;;;;;;10.40;92.00;;;;;;5009125;28;19948;-81
2023/02/05 13:19:59;;;;;;;;;;;10.40;92.10;;;;;;5005201;28;20348;-81
2023/02/05 13:31:25;;;;;;;;;;;10.50;89.50;;;;;;5005618;28;19913;-80
2023/02/05 13:33:52;;;;;;;;;;;10.30;90.00;;;;;;5009299;28;19913;-80
2023/02/05 13:36:23;;;;;;;;;;;10.10;90.10;;;;;;5011344;28;19920;-80
2023/02/05 13:39:09;;;;;;;;;;;10.00;90.10;;;;;;5009869;28;19917;-80
2023/02/05 13:41:59;;;;;;;;;;;10.00;90.10;;;;;;5004408;28;19949;-80
2023/02/05 13:44:43;;;;;;;;;;;9.90;90.50;;;;;;5009566;28;20499;-81
2023/02/05 13:47:21;;;;;;;;;;;9.90;90.40;;;;;;5009504;28;19944;-81
2023/02/05 13:50:14;;;;;;;;;;;9.70;90.20;;;;;;5007424;28;19966;-81
2023/02/05 13:52:55;;;;;;;;;;;9.60;90.10;;;;;;5008494;28;19913;-80
2023/02/05 13:55:21;;;;;;;;;;;9.60;90.30;;;;;;5004410;28;19912;-80
2023/02/05 13:57:55;;;;;;;;;;;9.70;90.30;;;;;;5006982;28;20578;-81
2023/02/05 14:00:21;;;;;;;;;;;9.80;90.30;;;;;;5011274;28;19932;-80
2023/02/05 14:02:48;;;;;;;;;;;9.80;90.30;;;;;;5018396;28;19909;-80
2023/02/05 14:05:14;;;;;;;;;;;9.90;89.40;;;;;;5014121;28;20015;-80
2023/02/05 14:07:44;;;;;;;;;;;9.90;90.00;;;;;;5018927;28;19950;-80
2023/02/05 14:10:24;;;;;;;;;;;10.00;89.20;;;;;;5014606;28;19913;-80
2023/02/05 14:12:50;;;;;;;;;;;10.00;88.20;;;;;;5020381;28;19913;-80
2023/02/05 14:15:18;;;;;;;;;;;10.10;88.80;;;;;;5020064;28;19917;-80
2023/02/05 14:17:44;;;;;;;;;;;10.20;87.80;;;;;;5004747;28;19914;-80
2023/02/05 14:20:25;;;;;;;;;;;10.20;87.60;;;;;;5005199;28;19920;-80
2023/02/05 14:22:53;;;;;;;;;;;10.10;87.80;;;;;;5005886;28;19928;-79
2023/02/05 14:25:34;;;;;;;;;;;10.00;87.30;;;;;;5008240;28;19917;-79
2023/02/05 14:28:11;;;;;;;;;;;10.10;88.00;;;;;;5004855;28;19913;-79
2023/02/05 14:30:50;;;;;;;;;;;10.00;86.60;;;;;;5005150;28;19918;-80
2023/02/05 14:33:30;;;;;;;;;;;9.90;87.20;;;;;;5005817;28;19920;-79
2023/02/05 14:36:24;;;;;;;;;;;9.80;86.50;;;;;;5011532;28;20597;-79
2023/02/05 14:39:02;;;;;;;;;;;9.90;85.80;;;;;;5008651;28;19916;-80
2023/02/05 14:41:27;;;;;;;;;;;9.90;84.40;;;;;;5004024;28;20245;-80
2023/02/05 14:43:59;;;;;;;;;;;9.80;84.70;;;;;;5008592;28;19913;-79
2023/02/05 14:46:32;;;;;;;;;;;9.70;85.10;;;;;;5005470;28;19921;-78
2023/02/05 14:49:00;;;;;;;;;;;9.80;84.90;;;;;;5002773;28;19967;-80
2023/02/05 14:51:30;;;;;;;;;;;9.70;84.90;;;;;;5002207;28;20054;-80